Pagina principală
METAR-TAF:

METAR-TAF

Aeroporturi :

Yap, Micronezia

Latitudine: 09-29N, longitudine: 138-05E, elevație: 28 m

Observații meteo curente

Raportul a fost făcut în urmă cu 56 de minute, la 11:55 UTC
Vânt calm
Temperatură 26°C
Umiditate 94%
Presiune 1011 hPa
Vizibilitate: 19.3 km
Nori împrăștiați la o înălțime de 1800 picior
Nori fragmentați la o înălțime de 30000 picior

METAR: PTYA 281155Z 00000KT 12SM SCT018 BKN300 26/25 A2985 RMK MDT CU ALQDS SLP110 70009 8/201 T02620247 10299 20261 52017

Ora: 22:51 (12:51 UTC)

Prognoză

Raportul a fost făcut în urmă cu 1 oră și 30 de minute, la 11:21 UTC
Prognoză valabilă de la 28 ora 12 UTC la 29 ora 12 UTC
Vânt 6 kt din direcții variabile
Vizibilitate: 10 km
Nori împrăștiați la o înălțime de 1600 picior
Nori fragmentați la o înălțime de 4000 picior
Nori fragmentați la o înălțime de 12000 picior
averse în apropiere

TAF: PTYA 281121Z 2812/2912 VRB06KT P6SM VCSH SCT016 BKN040 BKN120

Observații și prognoze meteo pentru peste 4.000 de aeroporturi (rapoarte METAR și TAF).

Stațiile disponibile sunt reprezentate pe hartă prin puncte galbene și roșii.

Țineți indicatorul mouse-ului pe punctul dorit pentru a vedea denumirea stației.

Apoi, faceți clic pentru a vedea observațiile și prognozele meteorologice.

Pentru a schimba harta: Pentru mărire, faceți clic pe butoanele verzi cu cruce neagră; pentru micșorare, pe butonul verde cu o liniuță; pentru hărți învecinate, pe săgețile verzi.


METAR-TAF: